Time;durP1;ratioP1;P1;durP2;ratioP2;P2;SDS_P1;SDS_P2;PMS_P1;PMS_P2;Temp;Humidity;BMP_temperature;BMP_pressure;BME280_temperature;BME280_humidity;BME280_pressure;Samples;Min_cycle;Max_cycle;Signal;HPM_P1;HPM_P2
2023/04/11 00:00:54;;;;;;;5.40;2.20;;;;;;;10.37;70.20;93675.00;4989212;28;20099;-53
2023/04/11 00:03:21;;;;;;;3.35;2.17;;;;;;;10.50;68.68;93673.22;4989984;28;20045;-54
2023/04/11 00:05:48;;;;;;;5.43;2.30;;;;;;;10.64;67.69;93666.66;4988889;28;20353;-53
2023/04/11 00:08:15;;;;;;;4.85;2.30;;;;;;;10.65;67.24;93659.22;4984682;28;20042;-55
2023/04/11 00:10:42;;;;;;;5.50;2.50;;;;;;;10.70;66.45;93659.47;4989086;28;20077;-58
2023/04/11 00:13:11;;;;;;;3.50;2.05;;;;;;;10.83;65.64;93651.38;4989736;28;20054;-52
2023/04/11 00:15:38;;;;;;;5.18;2.45;;;;;;;10.86;65.39;93647.00;4989751;28;20062;-54
2023/04/11 00:18:05;;;;;;;4.03;2.15;;;;;;;10.96;64.17;93641.28;4990034;28;20123;-54
2023/04/11 00:20:32;;;;;;;4.07;1.90;;;;;;;10.96;64.35;93630.31;4989640;28;20131;-58
2023/04/11 00:22:59;;;;;;;5.10;2.10;;;;;;;10.97;63.66;93620.13;4989971;28;20054;-56
2023/04/11 00:25:26;;;;;;;6.40;2.13;;;;;;;10.96;63.80;93624.06;4989357;28;20042;-58
2023/04/11 00:27:52;;;;;;;4.22;2.00;;;;;;;11.04;63.45;93621.94;4988952;28;20057;-57
2023/04/11 00:30:19;;;;;;;3.58;2.22;;;;;;;10.98;63.95;93608.69;4990187;28;20042;-55
2023/04/11 00:32:46;;;;;;;4.75;2.00;;;;;;;11.03;63.57;93593.69;4988992;28;20782;-56
2023/04/11 00:35:13;;;;;;;5.27;2.13;;;;;;;11.00;63.52;93587.06;4990037;28;20056;-55
2023/04/11 00:37:43;;;;;;;5.45;2.10;;;;;;;10.92;63.83;93582.16;4988797;28;22595;-54
2023/04/11 00:40:17;;;;;;;7.13;2.33;;;;;;;10.87;64.64;93571.72;4977849;28;20065;-55
2023/04/11 00:42:44;;;;;;;5.40;2.10;;;;;;;10.80;64.54;93564.38;4986659;28;20088;-55
2023/04/11 00:45:11;;;;;;;5.03;2.58;;;;;;;10.77;65.11;93568.00;4989725;28;20389;-56
2023/04/11 00:47:38;;;;;;;5.30;2.90;;;;;;;10.66;65.93;93567.44;4989138;28;20056;-56
2023/04/11 00:50:07;;;;;;;5.68;1.90;;;;;;;10.63;66.09;93557.31;4988313;28;20053;-56
2023/04/11 00:52:36;;;;;;;4.72;2.20;;;;;;;10.62;65.98;93562.03;4989492;28;20046;-55
2023/04/11 00:55:05;;;;;;;4.80;2.20;;;;;;;10.61;66.30;93555.00;4989543;28;20042;-56
2023/04/11 00:57:32;;;;;;;5.07;2.25;;;;;;;10.62;66.50;93558.50;4987781;28;20108;-57
2023/04/11 01:00:00;;;;;;;3.77;2.20;;;;;;;10.76;65.94;93575.44;4989672;28;20112;-58
2023/04/11 01:02:27;;;;;;;5.63;2.20;;;;;;;10.84;65.54;93567.06;4989275;28;20039;-54
2023/04/11 01:04:55;;;;;;;4.68;2.30;;;;;;;10.82;65.92;93564.72;4988377;28;20096;-55
2023/04/11 01:07:23;;;;;;;4.50;2.10;;;;;;;10.91;65.62;93561.44;4988228;28;20046;-58
2023/04/11 01:09:52;;;;;;;4.00;2.30;;;;;;;10.95;65.67;93551.91;4989104;28;20045;-51
2023/04/11 01:12:20;;;;;;;5.57;2.30;;;;;;;11.00;65.67;93551.38;4989343;28;20043;-54
2023/04/11 01:14:47;;;;;;;4.60;2.58;;;;;;;11.02;66.43;93555.69;4988814;28;21937;-54
2023/04/11 01:17:14;;;;;;;5.63;2.50;;;;;;;11.12;66.70;93566.41;4989760;28;20042;-54
2023/04/11 01:19:41;;;;;;;5.60;2.50;;;;;;;11.14;67.22;93566.00;4989120;28;20050;-55
2023/04/11 01:22:12;;;;;;;4.28;2.67;;;;;;;11.10;67.92;93571.56;4989512;28;20651;-58
2023/04/11 01:24:38;;;;;;;5.50;2.50;;;;;;;11.02;68.54;93570.19;4989067;28;20468;-58
2023/04/11 01:27:05;;;;;;;4.97;2.28;;;;;;;10.98;68.80;93564.75;4989324;28;20788;-56
2023/04/11 01:29:31;;;;;;;5.68;2.80;;;;;;;10.98;69.62;93564.00;4987348;28;20049;-60
2023/04/11 01:31:58;;;;;;;6.25;2.50;;;;;;;10.98;69.95;93569.47;4989313;28;20050;-57
2023/04/11 01:34:27;;;;;;;5.47;2.35;;;;;;;10.96;70.34;93564.41;4988515;28;20052;-55
2023/04/11 01:36:54;;;;;;;4.07;2.43;;;;;;;10.95;70.63;93570.34;4989196;28;20403;-55
2023/04/11 01:39:21;;;;;;;4.40;2.50;;;;;;;10.92;71.55;93565.69;4990274;28;20084;-57
2023/04/11 01:41:49;;;;;;;5.93;2.63;;;;;;;10.92;71.54;93558.22;4982677;28;20035;-58
2023/04/11 01:44:18;;;;;;;6.18;2.40;;;;;;;10.92;72.39;93560.22;4984635;28;20112;-59
2023/04/11 01:46:45;;;;;;;6.93;2.50;;;;;;;10.90;72.61;93543.38;4992266;28;20385;-59
2023/04/11 01:49:17;;;;;;;4.37;2.50;;;;;;;10.87;73.29;93542.28;4975367;28;20124;-58
2023/04/11 01:51:44;;;;;;;4.45;2.63;;;;;;;10.87;73.36;93538.78;4992085;28;20517;-57
2023/04/11 01:54:11;;;;;;;5.35;2.90;;;;;;;10.82;73.92;93547.50;4992181;28;20046;-55
2023/04/11 01:56:38;;;;;;;4.32;2.53;;;;;;;10.81;74.77;93537.72;4992166;28;20450;-57
2023/04/11 01:59:05;;;;;;;4.40;3.05;;;;;;;10.85;75.00;93536.44;4992685;28;20046;-59
2023/04/11 02:01:32;;;;;;;4.53;2.30;;;;;;;10.86;75.56;93526.22;4992122;28;20483;-55
2023/04/11 02:04:00;;;;;;;4.30;2.63;;;;;;;10.88;75.69;93537.56;4992459;28;20046;-54
2023/04/11 02:06:27;;;;;;;5.57;3.65;;;;;;;10.91;75.86;93544.94;4989550;28;20352;-54
2023/04/11 02:08:54;;;;;;;4.18;2.70;;;;;;;10.90;75.84;93544.16;4984963;28;20442;-55
2023/04/11 02:11:21;;;;;;;4.85;2.88;;;;;;;10.94;76.33;93535.84;4991149;28;20416;-57
2023/04/11 02:13:48;;;;;;;4.57;2.70;;;;;;;10.87;77.48;93542.28;4991986;28;20042;-58
2023/04/11 02:16:16;;;;;;;5.95;2.78;;;;;;;10.93;77.95;93548.03;4992294;28;20403;-58
2023/04/11 02:18:44;;;;;;;4.30;2.80;;;;;;;10.91;78.63;93559.44;4990681;28;20042;-58
2023/04/11 02:21:11;;;;;;;4.78;2.50;;;;;;;10.96;81.04;93558.16;4991978;28;20062;-60
2023/04/11 02:23:38;;;;;;;5.95;2.70;;;;;;;10.94;81.68;93557.81;4991761;28;20112;-57
2023/04/11 02:26:04;;;;;;;4.67;2.67;;;;;;;10.92;84.37;93569.22;4991846;28;20109;-53
2023/04/11 02:28:31;;;;;;;5.57;2.50;;;;;;;10.92;88.01;93565.69;4991774;28;20408;-58
2023/04/11 02:30:58;;;;;;;5.00;3.00;;;;;;;10.85;91.59;93557.63;4991873;28;20118;-62
2023/04/11 02:33:25;;;;;;;4.65;2.38;;;;;;;10.82;93.58;93548.25;4991520;28;20042;-58
2023/04/11 02:35:52;;;;;;;5.30;2.65;;;;;;;10.69;100.00;93547.41;4991703;28;20042;-57
2023/04/11 02:38:18;;;;;;;5.63;2.60;;;;;;;10.53;100.00;93548.13;4992170;28;20050;-55
2023/04/11 02:40:45;;;;;;;3.80;2.83;;;;;;;10.60;100.00;93556.19;4989225;28;20042;-57
2023/04/11 02:43:12;;;;;;;4.05;2.47;;;;;;;10.56;100.00;93552.75;4991173;28;20532;-57
2023/04/11 02:45:40;;;;;;;3.40;2.20;;;;;;;10.52;100.00;93552.84;4991196;28;20088;-56
2023/04/11 02:48:07;;;;;;;3.88;2.30;;;;;;;10.53;100.00;93537.16;4991894;28;20534;-54
2023/04/11 02:50:33;;;;;;;3.60;2.20;;;;;;;10.49;100.00;93539.97;4990392;28;20042;-57
2023/04/11 02:53:00;;;;;;;3.65;2.10;;;;;;;10.45;100.00;93547.50;4991680;28;20447;-54
2023/04/11 02:55:27;;;;;;;3.30;2.15;;;;;;;10.51;100.00;93545.03;4990899;28;20142;-55
2023/04/11 02:57:53;;;;;;;3.20;1.92;;;;;;;10.41;100.00;93546.78;4991277;28;20046;-56
2023/04/11 03:00:20;;;;;;;3.55;1.90;;;;;;;10.43;100.00;93535.41;4991421;28;20057;-51
2023/04/11 03:02:48;;;;;;;3.87;2.30;;;;;;;10.49;100.00;93550.94;4991403;28;20088;-55
2023/04/11 03:05:15;;;;;;;2.90;1.80;;;;;;;10.50;100.00;93554.44;4991295;28;20088;-56
2023/04/11 03:07:43;;;;;;;2.85;1.75;;;;;;;10.34;100.00;93558.69;4988791;28;20081;-54
2023/04/11 03:10:09;;;;;;;3.60;1.67;;;;;;;10.32;100.00;93557.53;4987104;28;20060;-54
2023/04/11 03:12:36;;;;;;;2.88;1.90;;;;;;;10.04;100.00;93556.91;4988968;28;20054;-54
2023/04/11 03:15:03;;;;;;;2.90;1.50;;;;;;;9.96;100.00;93556.25;4991039;28;20039;-55
2023/04/11 03:17:30;;;;;;;3.85;1.50;;;;;;;9.89;100.00;93552.88;4990785;28;20042;-58
2023/04/11 03:19:57;;;;;;;2.90;1.70;;;;;;;9.79;100.00;93555.38;4990764;28;20389;-54
2023/04/11 03:22:24;;;;;;;3.85;1.70;;;;;;;9.75;100.00;93562.13;4990761;28;20056;-55
2023/04/11 03:24:50;;;;;;;3.72;1.70;;;;;;;9.64;100.00;93550.56;4990800;28;20462;-55
2023/04/11 03:27:17;;;;;;;4.40;1.80;;;;;;;9.57;100.00;93544.03;4991156;28;20042;-55
2023/04/11 03:29:44;;;;;;;3.15;1.73;;;;;;;9.64;100.00;93545.09;4990331;28;20108;-53
2023/04/11 03:32:10;;;;;;;3.22;1.77;;;;;;;9.52;100.00;93546.50;4991032;28;20042;-55
2023/04/11 03:34:37;;;;;;;4.05;1.70;;;;;;;9.62;100.00;93556.47;4990230;28;20039;-57
2023/04/11 03:37:04;;;;;;;3.53;2.08;;;;;;;9.63;100.00;93554.50;4990994;28;20049;-56
2023/04/11 03:39:30;;;;;;;3.00;1.40;;;;;;;9.45;100.00;93533.66;4981973;28;20050;-56
2023/04/11 03:41:57;;;;;;;3.53;1.58;;;;;;;9.27;100.00;93536.69;4969780;28;20069;-58
2023/04/11 03:44:24;;;;;;;2.95;1.60;;;;;;;9.22;100.00;93537.19;4982372;28;20100;-57
2023/04/11 03:46:50;;;;;;;3.17;1.50;;;;;;;9.16;100.00;93525.94;4990419;28;20038;-55
2023/04/11 03:49:17;;;;;;;2.78;1.75;;;;;;;9.07;100.00;93533.88;4990487;28;20042;-55
2023/04/11 03:51:44;;;;;;;2.30;1.30;;;;;;;9.17;100.00;93540.38;4989961;28;20053;-56
2023/04/11 03:54:11;;;;;;;2.47;1.40;;;;;;;9.22;100.00;93523.50;4990504;28;20060;-57
2023/04/11 03:56:38;;;;;;;2.70;1.17;;;;;;;9.28;100.00;93530.06;4989926;28;20145;-58
2023/04/11 03:59:04;;;;;;;2.85;1.35;;;;;;;9.18;100.00;93537.25;4990456;28;20038;-56
2023/04/11 04:01:31;;;;;;;3.45;1.63;;;;;;;9.33;100.00;93537.78;4976486;28;20077;-54
2023/04/11 04:03:59;;;;;;;3.03;1.20;;;;;;;9.27;100.00;93533.97;4989027;28;20054;-55
2023/04/11 04:06:27;;;;;;;2.70;1.60;;;;;;;9.25;100.00;93549.28;4988416;28;20050;-57
2023/04/11 04:08:54;;;;;;;3.10;1.92;;;;;;;9.26;100.00;93550.84;4978916;28;20038;-57
2023/04/11 04:11:20;;;;;;;3.40;1.55;;;;;;;9.16;100.00;93564.25;4989263;28;20046;-56
2023/04/11 04:13:47;;;;;;;3.22;2.00;;;;;;;9.13;100.00;93554.13;4990160;28;20085;-57
2023/04/11 04:16:15;;;;;;;2.80;1.60;;;;;;;8.91;100.00;93544.69;4988800;28;20054;-55
2023/04/11 04:18:42;;;;;;;3.95;1.90;;;;;;;9.05;100.00;93543.72;4989681;28;20064;-55
2023/04/11 04:21:09;;;;;;;2.88;1.60;;;;;;;9.09;100.00;93556.16;4990247;28;20034;-54
2023/04/11 04:23:38;;;;;;;5.85;3.05;;;;;;;9.07;100.00;93563.22;4989456;28;20072;-58
2023/04/11 04:26:05;;;;;;;4.68;1.98;;;;;;;8.92;100.00;93560.72;4989765;28;20043;-55
2023/04/11 04:28:32;;;;;;;2.90;1.43;;;;;;;8.84;100.00;93570.22;4989608;28;20046;-56
2023/04/11 04:31:00;;;;;;;4.22;1.63;;;;;;;8.94;100.00;93560.31;4988369;28;20042;-52
2023/04/11 04:33:27;;;;;;;3.97;1.80;;;;;;;8.91;100.00;93566.59;4989542;28;20076;-58
2023/04/11 04:35:58;;;;;;;3.28;1.35;;;;;;;8.94;100.00;93557.56;4988558;28;20042;-59
2023/04/11 04:38:27;;;;;;;2.50;1.60;;;;;;;9.05;100.00;93560.13;4989297;28;20117;-57
2023/04/11 04:40:54;;;;;;;2.73;1.20;;;;;;;9.05;100.00;93574.59;4987169;28;20047;-58
2023/04/11 04:43:23;;;;;;;2.90;1.40;;;;;;;9.01;100.00;93573.88;4966585;28;20047;-57
2023/04/11 04:45:50;;;;;;;3.08;1.70;;;;;;;8.93;100.00;93559.53;4986832;28;20042;-57
2023/04/11 04:48:16;;;;;;;2.45;1.25;;;;;;;8.98;100.00;93561.78;4989475;28;20064;-55
2023/04/11 04:50:44;;;;;;;2.50;1.45;;;;;;;8.75;100.00;93564.47;4987972;28;20049;-54
2023/04/11 04:53:11;;;;;;;3.23;1.63;;;;;;;8.81;100.00;93571.03;4989460;28;20050;-54
2023/04/11 04:55:38;;;;;;;4.50;1.88;;;;;;;8.94;100.00;93569.28;4986415;28;20445;-56
2023/04/11 04:58:05;;;;;;;3.47;1.55;;;;;;;8.97;100.00;93582.16;4979276;28;20135;-55
2023/04/11 05:00:32;;;;;;;3.17;1.55;;;;;;;9.04;100.00;93588.72;4989285;28;20050;-58
2023/04/11 05:02:59;;;;;;;3.28;1.73;;;;;;;8.82;100.00;93580.03;4989498;28;20030;-55
2023/04/11 05:05:26;;;;;;;3.57;1.40;;;;;;;8.96;100.00;93566.13;4989200;28;20050;-55
2023/04/11 05:07:52;;;;;;;4.57;1.42;;;;;;;9.13;100.00;93573.28;4989390;28;20047;-55
2023/04/11 05:10:19;;;;;;;2.67;1.60;;;;;;;9.11;100.00;93575.66;4989082;28;20042;-58
2023/04/11 05:12:46;;;;;;;5.97;2.55;;;;;;;9.12;100.00;93587.41;4988886;28;20583;-56
2023/04/11 05:15:14;;;;;;;3.63;1.90;;;;;;;9.11;100.00;93594.06;4981941;28;20042;-57
2023/04/11 05:17:41;;;;;;;3.20;1.87;;;;;;;9.22;100.00;93610.34;4990016;28;20058;-56
2023/04/11 05:20:09;;;;;;;3.17;1.40;;;;;;;9.04;100.00;93618.81;4992645;28;20058;-57
2023/04/11 05:22:36;;;;;;;3.25;1.60;;;;;;;8.14;100.00;93623.41;4992305;28;20091;-57
2023/04/11 05:25:04;;;;;;;3.50;1.05;;;;;;;7.60;100.00;93692.19;4992607;28;20042;-57
2023/04/11 05:27:31;;;;;;;1.85;0.75;;;;;;;7.24;100.00;93707.25;4992042;28;20042;-57
2023/04/11 05:29:59;;;;;;;4.20;1.60;;;;;;;6.95;100.00;93686.38;4992306;28;20132;-57
2023/04/11 05:32:26;;;;;;;2.20;0.98;;;;;;;6.91;100.00;93703.94;4991561;28;20050;-55
2023/04/11 05:34:54;;;;;;;2.13;0.93;;;;;;;6.64;100.00;93690.81;4990893;28;20042;-58
2023/04/11 05:37:25;;;;;;;1.90;0.90;;;;;;;6.41;100.00;93694.00;4991858;28;20046;-52
2023/04/11 05:39:51;;;;;;;2.85;1.27;;;;;;;6.33;100.00;93697.91;4989856;28;20521;-56
2023/04/11 05:42:18;;;;;;;2.00;0.87;;;;;;;6.55;100.00;93723.94;4991516;28;20034;-59
2023/04/11 05:44:45;;;;;;;1.70;0.70;;;;;;;6.41;100.00;93710.34;4989713;28;20056;-56
2023/04/11 05:47:12;;;;;;;2.10;0.70;;;;;;;6.37;100.00;93723.22;4991714;28;20046;-60
2023/04/11 05:49:38;;;;;;;3.90;0.90;;;;;;;6.35;100.00;93701.78;4990915;28;20046;-57
2023/04/11 05:52:05;;;;;;;2.50;0.88;;;;;;;6.35;100.00;93729.03;4991531;28;20333;-54
2023/04/11 05:54:34;;;;;;;1.77;0.80;;;;;;;6.30;100.00;93734.91;4990905;28;20054;-58
2023/04/11 05:57:01;;;;;;;2.35;0.88;;;;;;;6.44;100.00;93733.31;4991581;28;20571;-56
2023/04/11 05:59:30;;;;;;;1.80;1.00;;;;;;;6.50;100.00;93727.06;4991168;28;20054;-58
2023/04/11 06:01:58;;;;;;;1.98;0.80;;;;;;;6.23;100.00;93745.03;4991316;28;20406;-58
2023/04/11 06:04:25;;;;;;;2.40;1.00;;;;;;;6.34;100.00;93743.84;4990860;28;20038;-57
2023/04/11 06:06:52;;;;;;;2.60;1.13;;;;;;;6.30;100.00;93742.28;4991698;28;20050;-52
2023/04/11 06:09:19;;;;;;;3.08;1.05;;;;;;;5.98;100.00;93754.03;4987332;28;20047;-56
2023/04/11 06:11:46;;;;;;;3.72;1.00;;;;;;;6.09;100.00;93743.13;4990031;28;20056;-55
2023/04/11 06:14:12;;;;;;;2.90;0.90;;;;;;;6.11;100.00;93744.28;4991633;28;20053;-54
2023/04/11 06:16:40;;;;;;;2.25;1.10;;;;;;;6.06;100.00;93747.41;4990532;28;20047;-57
2023/04/11 06:19:07;;;;;;;1.90;0.70;;;;;;;6.14;100.00;93751.69;4991100;28;20071;-60
2023/04/11 06:21:33;;;;;;;2.08;0.82;;;;;;;6.37;100.00;93740.34;4985760;28;20051;-56
2023/04/11 06:24:09;;;;;;;2.40;0.88;;;;;;;6.46;100.00;93752.78;4983280;28;20084;-60
2023/04/11 06:26:36;;;;;;;2.30;0.88;;;;;;;5.88;100.00;93752.81;4988991;28;20546;-55
2023/04/11 06:29:04;;;;;;;3.65;1.20;;;;;;;5.84;100.00;93760.22;4990982;28;20045;-52
2023/04/11 06:31:32;;;;;;;3.20;1.40;;;;;;;5.84;100.00;93762.94;4990381;28;20104;-57
2023/04/11 06:34:00;;;;;;;3.55;1.15;;;;;;;5.82;100.00;93762.56;4990819;28;20052;-60
2023/04/11 06:36:27;;;;;;;3.03;1.17;;;;;;;5.86;100.00;93768.00;4989491;28;20043;-56
2023/04/11 06:38:54;;;;;;;4.40;1.48;;;;;;;5.99;100.00;93759.06;4990724;28;20039;-62
2023/04/11 06:41:20;;;;;;;2.75;1.25;;;;;;;5.95;100.00;93777.34;4977387;28;20411;-59
2023/04/11 06:43:47;;;;;;;2.50;1.20;;;;;;;5.99;100.00;93780.84;4990791;28;20168;-52
2023/04/11 06:46:14;;;;;;;3.60;1.30;;;;;;;5.92;100.00;93783.56;4990866;28;20041;-50
2023/04/11 06:48:41;;;;;;;3.53;1.40;;;;;;;5.78;100.00;93780.84;4990089;28;20058;-54
2023/04/11 06:51:09;;;;;;;3.50;1.50;;;;;;;6.00;100.00;93778.94;4990373;28;20046;-60
2023/04/11 06:53:36;;;;;;;3.67;2.00;;;;;;;6.03;100.00;93785.53;4989977;28;20352;-60
2023/04/11 06:56:03;;;;;;;4.30;1.57;;;;;;;5.78;100.00;93776.16;4990442;28;20487;-59
2023/04/11 06:58:29;;;;;;;3.92;1.45;;;;;;;6.00;100.00;93774.25;4989830;28;20050;-58
2023/04/11 07:00:56;;;;;;;4.28;1.30;;;;;;;6.07;100.00;93786.31;4990585;28;20042;-58
2023/04/11 07:03:23;;;;;;;3.85;1.50;;;;;;;5.88;100.00;93780.06;4989972;28;20456;-59
2023/04/11 07:05:51;;;;;;;3.28;1.30;;;;;;;5.92;100.00;93797.19;4990034;28;20493;-58
2023/04/11 07:08:18;;;;;;;3.93;1.60;;;;;;;6.27;100.00;93800.31;4988200;28;20105;-61
2023/04/11 07:10:44;;;;;;;4.13;1.65;;;;;;;6.45;100.00;93797.56;4989811;28;20045;-59
2023/04/11 07:13:11;;;;;;;3.85;1.65;;;;;;;6.29;100.00;93790.56;4983040;28;20039;-61
2023/04/11 07:15:38;;;;;;;3.45;1.30;;;;;;;6.45;100.00;93787.44;4989878;28;20511;-57
2023/04/11 07:18:05;;;;;;;3.53;1.67;;;;;;;6.14;100.00;93783.59;4989983;28;20038;-58
2023/04/11 07:20:33;;;;;;;4.03;1.97;;;;;;;6.55;100.00;93780.41;4989647;28;20399;-61
2023/04/11 07:22:59;;;;;;;3.15;1.60;;;;;;;6.15;100.00;93777.75;4990126;28;20047;-59
2023/04/11 07:25:29;;;;;;;3.63;1.58;;;;;;;6.37;100.00;93786.66;4989604;28;20050;-59
2023/04/11 07:27:56;;;;;;;5.82;2.08;;;;;;;6.60;100.00;93785.47;4989707;28;20384;-58
2023/04/11 07:30:23;;;;;;;7.28;2.20;;;;;;;6.70;100.00;93792.06;4989588;28;20038;-59
2023/04/11 07:32:50;;;;;;;3.87;1.40;;;;;;;6.72;100.00;93785.06;4989808;28;20042;-61
2023/04/11 07:35:16;;;;;;;3.88;1.60;;;;;;;6.94;100.00;93791.22;4990085;28;20046;-59
2023/04/11 07:37:44;;;;;;;4.00;1.63;;;;;;;7.10;100.00;93776.34;4988701;28;20060;-58
2023/04/11 07:40:14;;;;;;;3.67;1.40;;;;;;;7.33;100.00;93794.97;4989616;28;20046;-58
2023/04/11 07:42:41;;;;;;;3.72;1.63;;;;;;;8.07;100.00;93790.19;4986623;28;20112;-58
2023/04/11 07:45:08;;;;;;;2.77;1.30;;;;;;;8.68;100.00;93803.34;4989619;28;20084;-58
2023/04/11 07:47:35;;;;;;;3.03;1.20;;;;;;;9.50;100.00;93793.44;4988946;28;20039;-59
2023/04/11 07:50:03;;;;;;;3.53;1.13;;;;;;;10.31;100.00;93792.66;4989379;28;20169;-59
2023/04/11 07:52:30;;;;;;;3.50;1.10;;;;;;;10.02;100.00;93783.28;4988949;28;20089;-60
2023/04/11 07:54:57;;;;;;;4.55;1.30;;;;;;;10.08;100.00;93796.13;4989307;28;20161;-60
2023/04/11 07:57:24;;;;;;;4.67;1.73;;;;;;;8.79;100.00;93790.34;4988968;28;20054;-60
2023/04/11 07:59:50;;;;;;;5.05;2.22;;;;;;;9.12;100.00;93790.00;4989066;28;20050;-58
2023/04/11 08:02:17;;;;;;;4.68;1.60;;;;;;;9.59;100.00;93801.13;4987833;28;20052;-61
2023/04/11 08:04:44;;;;;;;4.53;1.80;;;;;;;9.35;100.00;93800.28;4988683;28;20047;-59
2023/04/11 08:07:11;;;;;;;4.75;1.67;;;;;;;9.66;100.00;93803.00;4987754;28;20042;-60
2023/04/11 08:09:38;;;;;;;4.97;2.00;;;;;;;9.91;100.00;93799.91;4988500;28;20074;-61
2023/04/11 08:12:05;;;;;;;5.50;1.50;;;;;;;10.19;96.43;93806.94;4988947;28;20046;-58
2023/04/11 08:14:31;;;;;;;7.45;1.50;;;;;;;9.40;99.30;93821.75;4988691;28;20042;-60
2023/04/11 08:16:59;;;;;;;4.35;1.35;;;;;;;9.13;98.95;93813.44;4989242;28;20081;-58
2023/04/11 08:19:26;;;;;;;4.72;1.38;;;;;;;8.98;100.00;93819.06;4988309;28;20240;-59
2023/04/11 08:21:53;;;;;;;5.77;1.30;;;;;;;9.31;97.93;93826.91;4988733;28;20050;-59
2023/04/11 08:24:20;;;;;;;3.97;1.23;;;;;;;9.49;96.05;93826.72;4988374;28;20046;-58
2023/04/11 08:26:46;;;;;;;8.73;1.52;;;;;;;9.64;93.89;93825.34;4985795;28;20182;-56
2023/04/11 08:29:13;;;;;;;5.32;1.30;;;;;;;9.20;94.25;93838.00;4988452;28;20042;-59
2023/04/11 08:31:43;;;;;;;6.47;1.42;;;;;;;8.96;94.63;93840.59;4988367;28;20121;-58
2023/04/11 08:34:11;;;;;;;5.23;1.40;;;;;;;9.19;94.13;93847.41;4988558;28;20042;-59
2023/04/11 08:36:38;;;;;;;5.97;1.40;;;;;;;8.67;95.16;93853.00;4988349;28;20125;-59
2023/04/11 08:39:05;;;;;;;3.75;1.30;;;;;;;9.30;94.16;93848.06;4988366;28;20046;-59
2023/04/11 08:41:32;;;;;;;6.13;1.40;;;;;;;10.00;89.72;93849.53;4980036;28;20049;-58
2023/04/11 08:43:59;;;;;;;4.75;1.30;;;;;;;9.76;82.63;93848.69;4985531;28;20053;-58
2023/04/11 08:46:27;;;;;;;3.33;1.13;;;;;;;9.93;83.16;93847.66;4988098;28;20096;-59
2023/04/11 08:48:54;;;;;;;3.38;1.40;;;;;;;9.81;80.85;93837.25;4987687;28;20053;-62
2023/04/11 08:51:23;;;;;;;4.70;1.13;;;;;;;10.90;76.08;93834.41;4986546;28;20496;-58
2023/04/11 08:53:52;;;;;;;3.65;1.38;;;;;;;11.15;74.60;93825.72;4988752;28;20051;-58
2023/04/11 08:56:19;;;;;;;4.07;1.40;;;;;;;12.73;67.03;93825.81;4988276;28;20046;-59
2023/04/11 08:58:46;;;;;;;4.03;1.70;;;;;;;12.22;66.68;93824.72;4986559;28;20352;-58
2023/04/11 09:01:27;;;;;;;4.30;1.83;;;;;;;12.98;63.47;93825.19;4988215;28;20038;-59
2023/04/11 09:03:54;;;;;;;5.32;2.10;;;;;;;12.55;65.41;93825.47;4987654;28;20267;-58
2023/04/11 09:06:21;;;;;;;6.50;2.90;;;;;;;12.53;63.64;93825.13;4987513;28;20107;-57
2023/04/11 09:08:48;;;;;;;5.65;2.70;;;;;;;12.22;63.04;93833.72;4988258;28;20050;-57
2023/04/11 09:11:16;;;;;;;4.10;1.60;;;;;;;13.49;59.90;93832.91;4987846;28;20373;-59
2023/04/11 09:13:43;;;;;;;4.72;2.00;;;;;;;13.03;59.24;93845.91;4987883;28;20126;-60
2023/04/11 09:16:11;;;;;;;5.78;1.75;;;;;;;13.07;58.78;93845.84;4988291;28;20038;-57
2023/04/11 09:18:40;;;;;;;4.82;1.60;;;;;;;14.16;56.83;93859.75;4987773;28;20046;-57
2023/04/11 09:21:09;;;;;;;6.65;1.60;;;;;;;14.62;53.35;93853.28;4988131;28;20042;-60
2023/04/11 09:23:37;;;;;;;4.40;1.27;;;;;;;15.25;50.58;93838.56;4987850;28;20042;-59
2023/04/11 09:26:06;;;;;;;3.38;1.30;;;;;;;14.68;51.90;93832.94;4986048;28;20038;-59
2023/04/11 09:28:41;;;;;;;2.92;1.33;;;;;;;14.17;51.67;93843.97;4987911;28;20373;-60
2023/04/11 09:31:11;;;;;;;3.28;1.10;;;;;;;13.69;51.89;93845.78;4984637;28;20488;-59
2023/04/11 09:33:50;;;;;;;5.40;1.60;;;;;;;13.60;52.13;93846.38;4987664;28;20038;-59
2023/04/11 09:36:19;;;;;;;5.43;2.17;;;;;;;13.12;52.97;93851.59;4988292;28;20465;-58
2023/04/11 09:38:46;;;;;;;6.57;2.55;;;;;;;14.28;51.42;93847.16;4987767;28;20547;-57
2023/04/11 09:41:13;;;;;;;6.18;1.90;;;;;;;14.96;48.59;93844.28;4981600;28;20542;-58
2023/04/11 09:43:53;;;;;;;4.65;1.30;;;;;;;13.10;53.83;93831.97;4981295;28;20042;-58
2023/04/11 09:46:21;;;;;;;6.35;2.15;;;;;;;14.87;49.87;93828.38;4973436;28;20278;-58
2023/04/11 09:48:49;;;;;;;6.27;3.00;;;;;;;15.06;49.05;93829.31;4987761;28;20031;-59
2023/04/11 09:51:16;;;;;;;4.75;1.60;;;;;;;14.58;47.81;93832.06;4987908;28;20195;-61
2023/04/11 09:54:02;;;;;;;3.25;1.13;;;;;;;13.36;49.86;93840.34;4987351;28;22343;-61
2023/04/11 09:56:30;;;;;;;4.60;1.20;;;;;;;13.32;50.60;93839.69;4987550;28;20037;-58
2023/04/11 09:58:58;;;;;;;6.70;1.55;;;;;;;13.06;53.27;93845.06;4987768;28;20120;-58
2023/04/11 10:01:25;;;;;;;4.60;1.47;;;;;;;12.98;51.50;93851.97;4990335;28;20042;-58
2023/04/11 10:03:54;;;;;;;3.70;1.30;;;;;;;12.15;52.60;93869.63;4989912;28;20043;-58
2023/04/11 10:06:30;;;;;;;4.93;1.48;;;;;;;12.33;51.61;93856.25;4989522;28;20044;-57
2023/04/11 10:09:06;;;;;;;4.07;1.10;;;;;;;13.22;51.28;93855.28;4989784;28;20050;-60
2023/04/11 10:11:34;;;;;;;4.25;1.30;;;;;;;13.44;49.08;93874.03;4990724;28;20474;-60
2023/04/11 10:14:01;;;;;;;4.30;1.50;;;;;;;14.80;45.96;93861.00;4991187;28;20048;-59
2023/04/11 10:16:31;;;;;;;4.05;1.20;;;;;;;15.21;44.87;93857.25;4990998;28;20058;-58
2023/04/11 10:18:59;;;;;;;3.80;1.30;;;;;;;14.39;44.19;93855.13;4991249;28;20124;-59
2023/04/11 10:21:28;;;;;;;3.47;1.15;;;;;;;15.10;45.29;93856.84;4990645;28;20331;-60
2023/04/11 10:24:09;;;;;;;4.47;1.20;;;;;;;16.45;43.81;93878.09;4991110;28;20464;-58
2023/04/11 10:27:02;;;;;;;4.40;1.50;;;;;;;15.19;43.85;93865.22;4990379;28;20122;-59
2023/04/11 10:29:41;;;;;;;4.13;1.40;;;;;;;13.92;45.36;93856.53;4983892;28;20065;-58
2023/04/11 10:32:19;;;;;;;3.58;1.30;;;;;;;13.94;46.15;93867.91;4990279;28;20050;-59
2023/04/11 10:34:48;;;;;;;6.32;1.45;;;;;;;13.25;46.11;93856.38;4989977;28;20071;-59
2023/04/11 10:37:38;;;;;;;3.33;1.20;;;;;;;14.26;45.10;93857.09;4990681;28;20046;-60
2023/04/11 10:40:09;;;;;;;5.93;2.40;;;;;;;13.53;46.81;93854.88;4989708;28;22310;-58
2023/04/11 10:42:40;;;;;;;4.43;1.80;;;;;;;14.28;46.05;93846.41;4979217;28;20076;-59
2023/04/11 10:45:27;;;;;;;4.72;1.92;;;;;;;14.57;44.33;93849.09;4990582;28;20050;-61
2023/04/11 10:47:59;;;;;;;7.05;3.42;;;;;;;14.75;44.71;93843.00;4970344;28;20537;-58
2023/04/11 10:50:26;;;;;;;4.68;1.40;;;;;;;14.00;45.70;93835.00;4985743;28;20046;-58
2023/04/11 10:52:54;;;;;;;4.17;1.33;;;;;;;14.02;46.20;93840.84;4990530;28;20149;-58
2023/04/11 10:55:22;;;;;;;4.35;1.25;;;;;;;13.34;48.33;93845.53;4990577;28;20096;-58
2023/04/11 10:58:09;;;;;;;5.07;1.40;;;;;;;13.30;47.95;93837.38;4989501;28;20352;-59
2023/04/11 11:00:51;;;;;;;5.47;1.60;;;;;;;14.26;45.84;93846.06;4989996;28;20046;-59
2023/04/11 11:03:29;;;;;;;3.55;1.40;;;;;;;14.67;45.92;93847.97;4990563;28;20042;-59
2023/04/11 11:06:05;;;;;;;4.57;1.40;;;;;;;15.15;44.74;93834.94;4989331;28;21998;-61
2023/04/11 11:08:36;;;;;;;3.97;1.35;;;;;;;14.68;43.11;93835.69;4989705;28;20054;-60
2023/04/11 11:11:05;;;;;;;3.60;1.60;;;;;;;13.78;45.48;93841.16;4976814;28;20050;-61
2023/04/11 11:13:39;;;;;;;4.75;1.52;;;;;;;13.89;44.72;93838.09;4989510;28;20073;-59
2023/04/11 11:16:08;;;;;;;3.45;1.55;;;;;;;13.74;45.50;93848.78;4990172;28;20088;-59
2023/04/11 11:18:36;;;;;;;3.37;1.73;;;;;;;13.75;45.26;93846.78;4989549;28;20049;-59
2023/04/11 11:21:03;;;;;;;3.55;1.55;;;;;;;13.79;44.72;93837.19;4990051;28;20064;-59
2023/04/11 11:23:31;;;;;;;4.30;1.67;;;;;;;14.43;44.00;93843.97;4988951;28;20047;-62
2023/04/11 11:25:59;;;;;;;3.78;1.42;;;;;;;14.76;41.96;93845.28;4977205;28;20046;-61
2023/04/11 11:28:26;;;;;;;4.75;1.60;;;;;;;14.79;43.17;93843.66;4989396;28;20334;-60
2023/04/11 11:30:57;;;;;;;4.60;1.80;;;;;;;13.71;44.44;93840.59;4989979;28;20046;-59
2023/04/11 11:33:25;;;;;;;4.15;1.50;;;;;;;13.59;44.62;93848.38;4989532;28;20089;-59
2023/04/11 11:36:03;;;;;;;4.88;1.60;;;;;;;13.85;44.21;93845.69;4988526;28;20346;-60
2023/04/11 11:38:30;;;;;;;4.53;1.77;;;;;;;12.95;46.09;93852.81;4987326;28;20133;-60